createdAt,value
2022-10-29T00:02:33.132Z,10.79
2022-10-29T00:05:36.404Z,10.85
2022-10-29T00:08:40.886Z,10.86
2022-10-29T00:11:44.117Z,10.77
2022-10-29T00:14:46.682Z,10.85
2022-10-29T00:17:49.583Z,10.75
2022-10-29T00:21:03.228Z,10.27
2022-10-29T00:24:06.800Z,10.27
2022-10-29T00:27:09.489Z,10.24
2022-10-29T00:30:13.213Z,10.33
2022-10-29T05:47:46.356Z,10.03
2022-10-29T05:50:49.305Z,10.08
2022-10-29T05:53:51.864Z,10.18
2022-10-29T05:56:54.805Z,10.08
2022-10-29T05:59:57.399Z,10.17
2022-10-29T06:03:00.775Z,10.30
2022-10-29T06:06:04.804Z,10.05
2022-10-29T06:09:07.494Z,10.22
2022-10-29T06:12:10.429Z,9.98
2022-10-29T06:15:13.006Z,10.05
2022-10-29T06:18:16.000Z,10.04
2022-10-29T06:21:18.762Z,9.98
2022-10-29T06:24:21.955Z,10.08
2022-10-29T06:27:25.848Z,10.17
2022-10-29T06:30:33.155Z,10.20
2022-10-29T06:33:35.780Z,10.21
2022-10-29T06:36:38.713Z,10.25
2022-10-29T06:39:41.311Z,10.22
2022-10-29T06:42:44.635Z,9.99
2022-10-29T06:45:48.985Z,10.08
2022-10-29T06:48:51.910Z,10.08
2022-10-29T06:51:54.868Z,10.01
2022-10-29T06:54:57.752Z,9.97
2022-10-29T06:58:05.733Z,10.09
2022-10-29T07:01:08.603Z,10.20
2022-10-29T07:04:11.240Z,10.26
2022-10-29T07:07:14.553Z,10.36
2022-10-29T07:10:17.685Z,10.38
2022-10-29T07:13:20.711Z,10.36
2022-10-29T07:16:23.269Z,10.03
2022-10-29T07:19:26.266Z,10.05
2022-10-29T07:22:34.636Z,10.07
2022-10-29T07:25:39.022Z,10.31
2022-10-29T07:28:41.697Z,10.42
2022-10-29T07:31:44.715Z,10.23
2022-10-29T07:34:47.396Z,10.04
2022-10-29T07:37:50.321Z,10.37
2022-10-29T07:40:53.847Z,10.48
2022-10-29T07:43:56.819Z,10.23
2022-10-29T07:47:02.152Z,10.34
2022-10-29T07:50:05.364Z,10.37
2022-10-29T07:53:08.442Z,10.11
2022-10-29T07:56:11.401Z,10.21
2022-10-29T07:59:15.715Z,10.41
2022-10-29T08:02:20.829Z,10.49
2022-10-29T08:05:25.122Z,10.39
2022-10-29T08:08:27.990Z,10.36
2022-10-29T08:11:32.388Z,10.46
2022-10-29T08:14:34.994Z,10.66
2022-10-29T08:17:37.943Z,10.88
2022-10-29T08:20:40.673Z,10.86
2022-10-29T08:23:44.129Z,10.89
2022-10-29T08:26:47.065Z,10.89
2022-10-29T08:29:50.079Z,10.85
2022-10-29T08:32:52.791Z,10.72
2022-10-29T08:35:55.845Z,10.83
2022-10-29T08:39:00.046Z,11.02
2022-10-29T08:42:12.000Z,10.92
2022-10-29T08:45:23.130Z,10.90
2022-10-29T08:48:37.989Z,10.95
2022-10-29T08:51:44.466Z,10.68
2022-10-29T08:55:01.556Z,10.75
2022-10-29T08:58:16.677Z,10.98
2022-10-29T09:01:22.668Z,11.03
2022-10-29T09:04:35.910Z,11.03
2022-10-29T09:08:02.242Z,10.67
2022-10-29T09:11:47.151Z,10.75
2022-10-29T09:15:24.556Z,10.98
2022-10-29T09:18:45.546Z,11.23
2022-10-29T09:22:08.751Z,11.38
2022-10-29T09:25:28.004Z,11.37
2022-10-29T09:28:46.058Z,11.21
2022-10-29T09:31:57.709Z,10.99
2022-10-29T09:35:06.056Z,10.84
2022-10-29T09:38:36.528Z,10.83
2022-10-29T09:41:40.765Z,11.00
2022-10-29T09:44:52.869Z,10.78
2022-10-29T09:48:09.943Z,10.71
2022-10-29T09:51:20.018Z,11.04
2022-10-29T09:54:26.769Z,10.72
2022-10-29T09:57:31.976Z,11.00
2022-10-29T10:00:35.762Z,11.19
2022-10-29T10:03:45.707Z,11.10
2022-10-29T10:07:23.891Z,11.23
2022-10-29T10:10:27.129Z,11.36
2022-10-29T10:13:36.531Z,11.45
2022-10-29T10:16:39.455Z,11.48
2022-10-29T10:19:45.354Z,11.85
2022-10-29T10:22:48.270Z,11.80
2022-10-29T10:25:53.243Z,11.55
2022-10-29T10:29:26.851Z,11.97
2022-10-29T10:32:32.479Z,11.89
2022-10-29T10:35:43.084Z,11.87
2022-10-29T10:38:49.188Z,11.80
2022-10-29T10:41:52.906Z,11.79
2022-10-29T10:45:13.047Z,11.71
2022-10-29T10:48:18.155Z,12.02
2022-10-29T10:51:29.908Z,11.75
2022-10-29T10:55:09.487Z,11.59
2022-10-29T10:58:24.035Z,11.59
2022-10-29T11:01:51.158Z,11.58
2022-10-29T11:05:20.880Z,11.70
2022-10-29T11:08:51.669Z,11.68
2022-10-29T11:12:36.491Z,12.06
2022-10-29T11:16:32.232Z,12.24
2022-10-29T11:24:09.399Z,12.09
2022-10-29T11:54:37.660Z,12.26
2022-10-29T11:57:58.445Z,12.51
2022-10-29T12:01:15.142Z,12.55
2022-10-29T12:04:24.039Z,12.69
2022-10-29T12:07:46.784Z,12.61
2022-10-29T12:11:27.155Z,12.67
2022-10-29T12:14:52.617Z,12.72
2022-10-29T12:18:22.509Z,12.53
2022-10-29T12:21:45.335Z,12.54
2022-10-29T12:25:07.543Z,12.66
2022-10-29T12:28:19.037Z,12.78
2022-10-29T12:31:29.004Z,12.51
2022-10-29T12:34:53.811Z,12.68
2022-10-29T12:38:08.931Z,12.72
2022-10-29T12:41:25.462Z,12.66
2022-10-29T12:44:45.016Z,12.67
2022-10-29T12:48:07.897Z,12.87
2022-10-29T12:51:10.814Z,13.00
2022-10-29T12:54:20.338Z,12.64
2022-10-29T12:57:34.987Z,12.77
2022-10-29T13:00:48.762Z,12.81
2022-10-29T13:03:54.996Z,12.84
2022-10-29T13:07:00.582Z,13.01
2022-10-29T13:10:22.484Z,12.85
2022-10-29T13:13:55.029Z,13.02
2022-10-29T13:17:01.077Z,13.14
2022-10-29T13:20:34.137Z,13.12
2022-10-29T13:23:38.114Z,13.20
2022-10-29T13:27:00.310Z,13.22
2022-10-29T13:30:15.771Z,13.10
2022-10-29T13:33:27.544Z,13.15
2022-10-29T13:36:37.671Z,13.07
2022-10-29T13:39:43.229Z,13.07
2022-10-29T13:43:00.307Z,13.11
2022-10-29T13:46:33.757Z,12.93
2022-10-29T13:49:36.980Z,13.07
2022-10-29T13:52:41.149Z,13.11
2022-10-29T13:55:45.112Z,13.14
2022-10-29T13:58:50.668Z,13.17
2022-10-29T14:02:16.324Z,13.12
2022-10-29T14:05:26.457Z,13.03
2022-10-29T14:08:38.980Z,13.17
2022-10-29T14:11:45.206Z,12.95
2022-10-29T14:15:05.171Z,13.07
2022-10-29T14:18:27.695Z,13.12
2022-10-29T14:21:36.808Z,13.03
2022-10-29T14:24:53.935Z,13.00
2022-10-29T14:28:17.406Z,12.88
2022-10-29T14:31:28.771Z,12.81
2022-10-29T14:34:32.971Z,13.01
2022-10-29T14:37:43.125Z,13.00
2022-10-29T14:40:46.852Z,13.02
2022-10-29T14:44:27.822Z,12.99
2022-10-29T14:47:33.599Z,12.85
2022-10-29T14:50:37.599Z,12.96
2022-10-29T14:53:41.266Z,12.78
2022-10-29T14:56:44.315Z,12.85
2022-10-29T14:59:55.254Z,12.84
2022-10-29T15:02:59.660Z,12.88
2022-10-29T15:06:30.264Z,12.78
2022-10-29T15:09:33.505Z,12.80
2022-10-29T15:12:39.083Z,12.86
2022-10-29T15:15:53.510Z,12.80
2022-10-29T15:18:58.116Z,12.75
2022-10-29T15:22:01.193Z,12.76
2022-10-29T15:25:07.764Z,12.77
2022-10-29T15:28:14.393Z,12.71
2022-10-29T15:31:20.785Z,12.51
2022-10-29T15:34:35.696Z,12.38
2022-10-29T15:37:44.120Z,12.45
2022-10-29T15:41:14.100Z,12.55
2022-10-29T15:44:29.875Z,12.63
2022-10-29T15:47:33.430Z,12.46
2022-10-29T15:50:41.965Z,12.40
2022-10-29T15:53:44.933Z,12.35
2022-10-29T15:56:48.399Z,12.28
2022-10-29T15:59:55.505Z,12.32
2022-10-29T16:03:09.355Z,12.28
2022-10-29T16:06:14.738Z,12.37
2022-10-29T16:09:20.713Z,12.39
2022-10-29T16:12:23.824Z,12.42
2022-10-29T16:18:30.520Z,12.40
2022-10-29T16:21:33.295Z,12.37
2022-10-29T16:24:36.242Z,12.35
2022-10-29T16:27:38.979Z,12.12
2022-10-29T16:30:42.482Z,12.03
2022-10-29T16:33:45.351Z,12.10
2022-10-29T16:36:48.274Z,12.17
2022-10-29T16:39:51.149Z,12.21
2022-10-29T16:42:57.910Z,12.26
2022-10-29T16:46:04.267Z,12.07
2022-10-29T16:49:08.525Z,12.22
2022-10-29T16:52:11.403Z,12.18
2022-10-29T16:55:15.076Z,12.27
2022-10-29T16:58:19.053Z,12.22
2022-10-29T17:04:30.446Z,12.00
2022-10-29T17:07:33.748Z,12.16
2022-10-29T18:49:01.670Z,12.09
2022-10-29T18:52:04.873Z,12.15
2022-10-29T18:55:08.510Z,12.15
2022-10-29T18:58:11.705Z,12.13
2022-10-29T19:01:23.187Z,12.19
2022-10-29T19:04:26.461Z,12.09
2022-10-29T19:07:29.429Z,12.10
2022-10-29T19:10:40.138Z,12.17
2022-10-29T19:13:43.549Z,12.02
2022-10-29T19:16:46.795Z,11.91
2022-10-29T19:19:49.943Z,12.18
2022-10-29T19:22:53.356Z,12.17
2022-10-29T19:25:56.641Z,12.38
2022-10-29T19:29:01.756Z,12.17
2022-10-29T19:32:05.026Z,12.17
2022-10-29T19:35:09.013Z,12.10
2022-10-29T19:38:11.783Z,12.18
2022-10-29T19:41:17.606Z,12.22
2022-10-29T19:44:20.490Z,12.18
2022-10-29T19:47:23.584Z,12.21
2022-10-29T19:50:26.873Z,12.10
2022-10-29T19:53:30.660Z,12.12
2022-10-29T19:56:33.873Z,12.07
2022-10-29T19:59:36.965Z,12.03
2022-10-29T20:02:40.387Z,12.08
2022-10-29T20:05:44.120Z,12.05
2022-10-29T20:08:47.109Z,11.95
2022-10-29T20:11:50.472Z,12.14
2022-10-29T20:14:53.292Z,12.03
2022-10-29T20:17:57.477Z,12.04
2022-10-29T20:21:00.510Z,12.01
2022-10-29T20:24:04.277Z,12.04
2022-10-29T20:27:07.095Z,12.09
2022-10-29T20:30:11.599Z,11.97
2022-10-29T20:33:14.547Z,12.02
2022-10-29T20:36:17.743Z,12.02
2022-10-29T20:39:20.686Z,12.04
2022-10-29T20:42:23.766Z,12.12
2022-10-29T20:45:26.484Z,12.09
2022-10-29T20:48:30.071Z,12.12
2022-10-29T20:51:32.901Z,12.09
2022-10-29T20:54:35.827Z,12.03
2022-10-29T20:57:38.436Z,12.08
2022-10-29T21:00:41.625Z,12.06
2022-10-29T21:03:45.017Z,12.14
2022-10-29T21:06:49.735Z,12.03
2022-10-29T21:09:52.309Z,12.08
2022-10-29T21:12:55.444Z,12.00
2022-10-29T21:16:10.478Z,12.04
2022-10-29T21:19:13.392Z,11.97
2022-10-29T21:22:18.848Z,11.98
2022-10-29T21:25:21.875Z,12.00
2022-10-29T21:28:24.490Z,11.99
2022-10-29T21:31:27.492Z,11.98
2022-10-29T21:34:30.076Z,11.99
2022-10-29T21:37:32.967Z,12.02
2022-10-29T21:40:35.569Z,12.06
2022-10-29T21:43:39.034Z,11.97
2022-10-29T21:46:41.602Z,12.01
